createdAt,value
2019-05-21T00:01:05.813Z,2.40
2019-05-21T00:03:33.829Z,2.17
2019-05-21T00:06:01.677Z,2.80
2019-05-21T00:08:29.784Z,2.20
2019-05-21T00:10:57.875Z,2.60
2019-05-21T00:13:25.800Z,2.77
2019-05-21T00:15:53.813Z,2.80
2019-05-21T00:18:21.662Z,2.73
2019-05-21T00:20:49.587Z,2.40
2019-05-21T00:23:17.454Z,2.50
2019-05-21T00:25:45.551Z,2.10
2019-05-21T00:28:38.321Z,2.47
2019-05-21T00:31:42.188Z,2.80
2019-05-21T00:34:46.123Z,2.10
2019-05-21T00:37:51.552Z,1.70
2019-05-21T00:40:55.770Z,1.77
2019-05-21T00:43:40.407Z,2.13
2019-05-21T00:46:08.327Z,2.30
2019-05-21T00:48:36.052Z,2.30
2019-05-21T00:51:04.817Z,2.33
2019-05-21T00:53:32.644Z,2.33
2019-05-21T00:56:00.525Z,2.20
2019-05-21T00:58:28.467Z,2.47
2019-05-21T01:00:56.783Z,2.73
2019-05-21T01:03:25.429Z,3.27
2019-05-21T01:05:53.301Z,3.30
2019-05-21T01:08:21.472Z,3.10
2019-05-21T01:10:49.415Z,3.33
2019-05-21T01:13:17.270Z,3.53
2019-05-21T01:15:45.159Z,3.10
2019-05-21T01:18:13.317Z,3.23
2019-05-21T01:20:41.307Z,3.03
2019-05-21T01:23:09.393Z,3.00
2019-05-21T01:25:37.416Z,2.80
2019-05-21T01:28:05.559Z,2.80
2019-05-21T01:30:33.804Z,2.90
2019-05-21T01:33:01.988Z,2.97
2019-05-21T01:35:29.919Z,2.97
2019-05-21T01:37:57.778Z,2.90
2019-05-21T01:40:25.882Z,3.20
2019-05-21T01:42:54.203Z,2.93
2019-05-21T01:45:22.025Z,3.40
2019-05-21T01:47:50.082Z,3.10
2019-05-21T01:50:17.982Z,3.20
2019-05-21T01:52:46.037Z,2.97
2019-05-21T01:55:14.002Z,3.40
2019-05-21T01:57:41.824Z,2.93
2019-05-21T02:00:10.138Z,3.30
2019-05-21T02:02:38.188Z,3.00
2019-05-21T02:05:06.403Z,3.10
2019-05-21T02:07:34.499Z,3.50
2019-05-21T02:10:03.988Z,3.40
2019-05-21T02:12:33.132Z,3.53
2019-05-21T02:15:01.038Z,3.50
2019-05-21T02:17:29.120Z,3.80
2019-05-21T02:19:57.091Z,3.37
2019-05-21T02:22:25.096Z,3.30
2019-05-21T02:24:53.014Z,2.90
2019-05-21T02:27:21.116Z,3.17
2019-05-21T02:29:49.978Z,3.20
2019-05-21T02:32:18.151Z,2.90
2019-05-21T02:34:46.018Z,2.60
2019-05-21T02:37:14.040Z,2.93
2019-05-21T02:39:42.150Z,2.73
2019-05-21T02:42:10.093Z,3.30
2019-05-21T02:44:37.992Z,3.47
2019-05-21T02:47:05.995Z,3.47
2019-05-21T02:49:33.945Z,3.40
2019-05-21T02:52:01.937Z,4.10
2019-05-21T02:54:40.023Z,4.37
2019-05-21T02:57:00.227Z,3.93
2019-05-21T02:59:28.235Z,3.80
2019-05-21T03:02:24.617Z,4.50
2019-05-21T03:04:52.689Z,4.00
2019-05-21T03:07:20.787Z,4.37
2019-05-21T03:09:49.105Z,4.50
2019-05-21T03:12:17.632Z,4.53
2019-05-21T03:14:46.068Z,4.47
2019-05-21T03:17:14.306Z,4.10
2019-05-21T03:19:42.326Z,4.23
2019-05-21T03:22:10.061Z,4.70
2019-05-21T03:24:38.221Z,4.20
2019-05-21T03:27:06.306Z,4.27
2019-05-21T03:29:34.330Z,3.67
2019-05-21T03:32:02.267Z,3.50
2019-05-21T03:34:30.286Z,3.80
2019-05-21T03:36:58.319Z,3.97
2019-05-21T03:39:26.944Z,3.50
2019-05-21T03:41:54.804Z,4.03
2019-05-21T03:44:22.800Z,3.77
2019-05-21T03:46:50.782Z,4.20
2019-05-21T03:49:18.820Z,4.20
2019-05-21T03:51:46.668Z,4.03
2019-05-21T03:54:16.373Z,4.73
2019-05-21T03:56:44.250Z,4.70
2019-05-21T03:59:12.133Z,4.40
2019-05-21T04:01:40.114Z,4.20
2019-05-21T04:04:08.105Z,4.33
2019-05-21T04:06:50.510Z,4.03
2019-05-21T04:09:06.636Z,4.27
2019-05-21T04:11:34.527Z,3.97
2019-05-21T04:14:02.472Z,4.07
2019-05-21T04:16:37.211Z,3.77
2019-05-21T04:19:18.224Z,3.97
2019-05-21T04:21:46.325Z,3.47
2019-05-21T04:24:14.122Z,3.60
2019-05-21T04:26:42.038Z,3.10
2019-05-21T04:29:09.957Z,3.53
2019-05-21T04:31:37.950Z,3.07
2019-05-21T04:34:05.797Z,3.30
2019-05-21T04:36:34.082Z,2.83
2019-05-21T04:39:05.343Z,2.40
2019-05-21T04:41:33.295Z,2.50
2019-05-21T04:44:01.163Z,2.23
2019-05-21T04:46:29.274Z,2.70
2019-05-21T04:48:56.809Z,2.90
2019-05-21T04:51:24.681Z,3.30
2019-05-21T04:53:52.521Z,3.10
2019-05-21T04:56:20.603Z,4.33
2019-05-21T04:58:48.449Z,4.20
2019-05-21T05:01:16.437Z,4.07
2019-05-21T05:03:44.601Z,5.30
2019-05-21T05:06:12.865Z,4.60
2019-05-21T05:08:40.672Z,4.47
2019-05-21T05:11:08.768Z,4.23
2019-05-21T05:13:36.758Z,4.70
2019-05-21T05:16:04.767Z,3.20
2019-05-21T05:18:33.102Z,3.10
2019-05-21T05:21:01.415Z,2.80
2019-05-21T05:23:29.498Z,2.30
2019-05-21T05:25:58.465Z,1.97
2019-05-21T05:28:26.103Z,1.40
2019-05-21T05:30:54.004Z,2.10
2019-05-21T05:33:22.068Z,1.80
2019-05-21T05:35:50.249Z,1.47
2019-05-21T05:38:18.274Z,1.50
2019-05-21T05:40:46.304Z,1.70
2019-05-21T05:43:14.635Z,1.67
2019-05-21T05:45:42.621Z,1.50
2019-05-21T05:48:10.887Z,1.60
2019-05-21T05:50:40.963Z,1.40
2019-05-21T05:53:09.035Z,1.50
2019-05-21T05:55:37.163Z,1.63
2019-05-21T05:58:05.304Z,1.40
2019-05-21T06:00:33.267Z,1.27
2019-05-21T06:03:01.149Z,1.20
2019-05-21T06:05:29.330Z,1.27
2019-05-21T06:08:00.398Z,1.40
2019-05-21T06:10:28.920Z,1.10
2019-05-21T06:12:56.987Z,1.20
2019-05-21T06:15:24.994Z,1.30
2019-05-21T06:17:52.981Z,1.10
2019-05-21T06:20:21.216Z,1.00
2019-05-21T06:22:49.283Z,1.13
2019-05-21T06:25:17.496Z,1.23
2019-05-21T06:27:45.396Z,1.60
2019-05-21T06:30:13.604Z,1.30
2019-05-21T06:32:41.759Z,1.30
2019-05-21T06:35:10.330Z,1.17
2019-05-21T06:37:38.622Z,1.20
2019-05-21T06:40:06.882Z,1.10
2019-05-21T06:42:34.806Z,1.33
2019-05-21T06:45:03.462Z,0.77
2019-05-21T06:47:31.648Z,0.90
2019-05-21T06:49:59.869Z,0.90
2019-05-21T06:52:27.805Z,0.70
2019-05-21T06:54:55.737Z,0.80
2019-05-21T06:57:23.741Z,0.63
2019-05-21T06:59:51.653Z,1.03
2019-05-21T07:02:19.564Z,0.80
2019-05-21T07:04:47.516Z,0.83
2019-05-21T07:07:15.589Z,1.00
2019-05-21T07:09:43.751Z,0.90
2019-05-21T07:12:11.733Z,1.00
2019-05-21T07:14:39.656Z,1.10
2019-05-21T07:17:07.587Z,0.80
2019-05-21T07:19:35.605Z,0.90
2019-05-21T07:22:12.611Z,0.60
2019-05-21T07:24:33.448Z,0.73
2019-05-21T07:27:01.654Z,0.70
2019-05-21T07:29:29.584Z,0.70
2019-05-21T07:31:57.552Z,0.70
2019-05-21T07:34:25.457Z,1.00
2019-05-21T07:36:53.483Z,0.70
2019-05-21T07:39:21.400Z,0.70
2019-05-21T07:41:49.431Z,0.80
2019-05-21T07:44:17.337Z,0.80
2019-05-21T07:46:45.275Z,0.73
2019-05-21T07:49:13.297Z,0.70
2019-05-21T07:51:41.251Z,0.70
2019-05-21T07:54:09.363Z,0.80
2019-05-21T07:56:37.200Z,0.80
2019-05-21T07:59:05.122Z,0.90
2019-05-21T08:01:33.107Z,0.90
2019-05-21T08:04:01.045Z,0.90
2019-05-21T08:06:29.271Z,0.70
2019-05-21T08:09:12.743Z,0.73
2019-05-21T08:11:26.847Z,0.63
2019-05-21T08:13:54.851Z,0.70
2019-05-21T08:16:22.741Z,0.70
2019-05-21T08:18:50.278Z,0.60
2019-05-21T08:21:17.920Z,0.80
2019-05-21T08:23:45.485Z,0.60
2019-05-21T08:26:13.066Z,0.73
2019-05-21T08:28:40.671Z,0.97
2019-05-21T08:31:08.440Z,0.83
2019-05-21T08:33:36.159Z,0.80
2019-05-21T08:36:04.549Z,0.70
2019-05-21T08:38:32.603Z,0.90
2019-05-21T08:41:00.219Z,0.83
2019-05-21T08:43:28.138Z,1.10
2019-05-21T08:45:55.699Z,1.10
2019-05-21T08:48:23.354Z,0.90
2019-05-21T08:50:51.017Z,1.00
2019-05-21T08:53:18.717Z,0.90
2019-05-21T08:55:47.915Z,1.10
2019-05-21T08:58:15.567Z,0.97
2019-05-21T09:00:43.230Z,0.83
2019-05-21T09:03:10.929Z,0.90
2019-05-21T09:05:38.544Z,0.80
2019-05-21T09:08:06.375Z,0.90
2019-05-21T09:10:34.019Z,0.70
2019-05-21T09:13:01.694Z,0.90
2019-05-21T09:15:29.476Z,0.90
2019-05-21T09:17:57.553Z,0.83
2019-05-21T09:20:25.290Z,0.93
2019-05-21T09:22:52.984Z,0.90
2019-05-21T09:25:20.545Z,0.93
2019-05-21T09:27:48.165Z,0.70
2019-05-21T09:30:15.808Z,0.87
2019-05-21T09:32:43.818Z,0.80
2019-05-21T09:35:12.737Z,0.70
2019-05-21T09:37:41.124Z,0.80
2019-05-21T09:40:09.767Z,1.00
2019-05-21T09:42:37.701Z,1.03
2019-05-21T09:45:07.442Z,0.93
2019-05-21T09:47:35.462Z,0.60
2019-05-21T09:50:04.022Z,0.70
2019-05-21T09:52:32.502Z,0.80
2019-05-21T09:55:00.112Z,1.07
2019-05-21T09:57:40.691Z,0.70
2019-05-21T10:00:24.079Z,1.30
2019-05-21T10:02:52.246Z,0.70
2019-05-21T10:05:20.338Z,0.87
2019-05-21T10:07:48.425Z,1.10
2019-05-21T10:10:16.342Z,0.87
2019-05-21T10:12:44.268Z,0.90
2019-05-21T10:15:12.115Z,0.90
2019-05-21T10:17:39.883Z,0.70
2019-05-21T10:20:07.888Z,0.50
2019-05-21T10:22:35.947Z,0.80
2019-05-21T10:25:04.453Z,0.80
2019-05-21T10:27:32.515Z,1.10
2019-05-21T10:30:00.577Z,1.00
2019-05-21T10:32:28.609Z,0.90
2019-05-21T10:34:56.561Z,0.80
2019-05-21T10:37:24.480Z,0.70
2019-05-21T10:39:52.712Z,0.90
2019-05-21T10:42:20.788Z,0.80
2019-05-21T10:44:48.768Z,0.70
2019-05-21T10:47:17.012Z,0.70
2019-05-21T10:49:45.984Z,0.90
2019-05-21T10:52:13.934Z,0.80
2019-05-21T10:54:41.837Z,0.90
2019-05-21T10:57:09.737Z,0.70
2019-05-21T10:59:38.602Z,0.80
2019-05-21T11:02:17.309Z,0.90
2019-05-21T11:05:00.766Z,0.80
2019-05-21T11:07:28.758Z,0.60
2019-05-21T11:09:56.662Z,0.60
2019-05-21T11:12:24.647Z,0.70
2019-05-21T11:14:52.616Z,0.70
2019-05-21T11:17:20.918Z,0.87
2019-05-21T11:19:48.975Z,1.10
2019-05-21T11:22:17.712Z,0.77
2019-05-21T11:24:45.945Z,0.60
2019-05-21T11:27:13.673Z,0.90
2019-05-21T11:29:41.358Z,1.10
2019-05-21T11:32:09.156Z,0.80
2019-05-21T11:34:36.937Z,0.90
2019-05-21T11:37:04.806Z,0.80
2019-05-21T11:39:34.126Z,0.97
2019-05-21T11:42:01.931Z,0.77
2019-05-21T11:44:29.620Z,1.20
2019-05-21T11:46:57.358Z,0.90
2019-05-21T11:49:25.406Z,0.80
2019-05-21T11:51:53.639Z,0.80
2019-05-21T11:54:21.570Z,0.90
2019-05-21T11:56:49.789Z,0.87
2019-05-21T11:59:17.786Z,1.03
2019-05-21T12:01:45.665Z,0.90
2019-05-21T12:04:13.684Z,1.43
2019-05-21T12:06:41.783Z,0.93
2019-05-21T12:09:09.904Z,1.00
2019-05-21T12:11:38.026Z,0.90
2019-05-21T12:14:05.787Z,1.07
2019-05-21T12:16:33.585Z,1.10
2019-05-21T12:19:01.296Z,0.90
2019-05-21T12:21:29.395Z,0.70
2019-05-21T12:23:57.503Z,0.73
2019-05-21T12:26:25.612Z,0.80
2019-05-21T12:28:53.498Z,0.80
2019-05-21T12:31:22.695Z,0.77
2019-05-21T12:33:50.665Z,0.90
2019-05-21T12:36:18.878Z,0.50
2019-05-21T12:38:46.879Z,0.50
2019-05-21T12:41:14.995Z,0.90
2019-05-21T12:43:43.027Z,0.63
2019-05-21T12:46:11.000Z,0.80
2019-05-21T12:48:38.994Z,0.80
2019-05-21T12:51:07.068Z,0.70
2019-05-21T12:53:34.977Z,0.70
2019-05-21T12:56:04.576Z,0.70
2019-05-21T12:58:32.405Z,0.60
2019-05-21T13:01:00.371Z,0.70
2019-05-21T13:03:28.286Z,0.60
2019-05-21T13:05:56.325Z,0.90
2019-05-21T13:08:24.113Z,0.80
2019-05-21T13:10:53.029Z,0.70
2019-05-21T13:13:21.201Z,0.80
2019-05-21T13:15:49.205Z,0.80
2019-05-21T13:18:17.143Z,0.70
2019-05-21T13:20:45.768Z,0.87
2019-05-21T13:23:13.623Z,0.90
2019-05-21T13:25:42.004Z,1.03
2019-05-21T13:28:10.202Z,0.90
2019-05-21T13:30:38.105Z,0.80
2019-05-21T13:33:05.993Z,0.70
2019-05-21T13:35:33.915Z,1.23
2019-05-21T13:38:01.855Z,0.73
2019-05-21T13:40:30.653Z,1.00
2019-05-21T13:42:59.100Z,0.70
2019-05-21T13:45:26.986Z,0.70
2019-05-21T13:47:55.305Z,1.33
2019-05-21T13:50:23.544Z,0.87
2019-05-21T13:52:51.797Z,0.87
2019-05-21T13:55:20.022Z,1.07
2019-05-21T13:57:48.176Z,0.90
2019-05-21T14:00:24.322Z,1.10
2019-05-21T14:02:52.361Z,1.17
2019-05-21T14:05:20.626Z,1.00
2019-05-21T14:07:48.610Z,1.20
2019-05-21T14:10:19.886Z,1.20
2019-05-21T14:12:46.431Z,1.07
2019-05-21T14:15:14.600Z,1.20
2019-05-21T14:17:42.403Z,1.03
2019-05-21T14:20:11.044Z,1.00
2019-05-21T14:22:39.021Z,1.20
2019-05-21T14:25:06.995Z,1.17
2019-05-21T14:27:44.234Z,1.00
2019-05-21T14:30:05.517Z,1.17
2019-05-21T14:32:33.660Z,1.20
2019-05-21T14:35:02.505Z,1.20
2019-05-21T14:37:30.766Z,1.00
2019-05-21T14:39:59.744Z,1.10
2019-05-21T14:42:27.503Z,0.90
2019-05-21T14:44:55.172Z,1.07
2019-05-21T14:47:22.781Z,1.70
2019-05-21T14:49:50.396Z,1.33
2019-05-21T14:52:17.938Z,1.37
2019-05-21T14:54:45.593Z,1.13
2019-05-21T14:57:13.144Z,1.00
2019-05-21T14:59:40.903Z,1.00
2019-05-21T15:02:08.866Z,0.90
2019-05-21T15:04:36.973Z,0.93
2019-05-21T15:07:06.494Z,1.10
2019-05-21T15:09:34.713Z,1.00
2019-05-21T15:12:02.349Z,0.70
2019-05-21T15:14:31.053Z,0.93
2019-05-21T15:16:59.126Z,0.87
2019-05-21T15:19:27.124Z,1.20
2019-05-21T15:21:55.053Z,1.00
2019-05-21T15:24:23.127Z,1.10
2019-05-21T15:26:52.390Z,0.93
2019-05-21T15:29:21.841Z,1.13
2019-05-21T15:31:50.800Z,1.27
2019-05-21T15:34:18.932Z,0.93
2019-05-21T15:36:46.461Z,1.10
2019-05-21T15:39:14.384Z,1.10
2019-05-21T15:41:42.291Z,1.00
2019-05-21T15:44:10.018Z,0.93
2019-05-21T15:46:47.656Z,1.07
2019-05-21T15:49:08.954Z,0.70
2019-05-21T15:51:36.468Z,1.10
2019-05-21T15:54:04.269Z,1.10
2019-05-21T15:56:31.772Z,0.97
2019-05-21T15:58:59.465Z,1.10
2019-05-21T16:01:26.996Z,1.10
2019-05-21T16:03:54.647Z,1.10
2019-05-21T16:06:22.186Z,1.07
2019-05-21T16:08:49.882Z,1.17
2019-05-21T16:11:28.188Z,0.90
2019-05-21T16:13:47.111Z,1.00
2019-05-21T16:16:15.084Z,1.00
2019-05-21T16:18:42.777Z,0.70
2019-05-21T16:21:10.464Z,0.87
2019-05-21T16:23:38.214Z,1.00
2019-05-21T16:26:05.863Z,0.80
2019-05-21T16:28:33.718Z,0.90
2019-05-21T16:31:01.457Z,0.97
2019-05-21T16:33:29.119Z,0.80
2019-05-21T16:35:56.806Z,1.03
2019-05-21T16:38:24.604Z,0.87
2019-05-21T16:40:52.505Z,0.90
2019-05-21T16:43:27.871Z,1.10
2019-05-21T16:45:55.710Z,1.10
2019-05-21T16:48:23.481Z,1.00
2019-05-21T16:50:51.211Z,1.20
2019-05-21T16:53:18.955Z,1.07
2019-05-21T16:55:49.352Z,1.10
2019-05-21T16:58:33.565Z,1.10
2019-05-21T17:01:15.904Z,1.20
2019-05-21T17:03:41.247Z,0.90
2019-05-21T17:06:09.609Z,1.13
2019-05-21T17:08:45.594Z,0.93
2019-05-21T17:11:14.016Z,1.03
2019-05-21T17:13:55.943Z,1.10
2019-05-21T17:17:13.685Z,1.27
2019-05-21T17:19:49.097Z,1.00
2019-05-21T17:22:24.328Z,1.10
2019-05-21T17:25:00.148Z,1.07
2019-05-21T17:27:31.073Z,1.20
2019-05-21T17:30:04.090Z,1.00
2019-05-21T17:32:39.472Z,1.27
2019-05-21T17:35:19.518Z,1.30
2019-05-21T17:37:52.612Z,1.30
2019-05-21T17:40:29.766Z,1.13
2019-05-21T17:43:01.818Z,1.23
2019-05-21T17:45:38.990Z,0.97
2019-05-21T17:48:11.007Z,0.90
2019-05-21T17:50:52.767Z,1.03
2019-05-21T17:53:28.602Z,0.90
2019-05-21T17:56:04.050Z,1.17
2019-05-21T17:58:33.512Z,1.13
2019-05-21T18:01:03.290Z,1.23
2019-05-21T18:03:32.015Z,1.33
2019-05-21T18:06:00.322Z,1.50
2019-05-21T18:08:28.994Z,1.50
2019-05-21T18:10:56.957Z,3.53
2019-05-21T18:13:25.212Z,2.10
2019-05-21T18:15:59.022Z,1.60
2019-05-21T18:18:31.181Z,1.50
2019-05-21T18:21:07.277Z,1.50
2019-05-21T18:23:36.317Z,1.80
2019-05-21T18:29:55.927Z,1.80
2019-05-21T18:32:23.722Z,1.73
2019-05-21T18:34:51.377Z,1.90
2019-05-21T18:37:19.448Z,1.83
2019-05-21T18:40:28.387Z,2.17
2019-05-21T18:43:03.323Z,1.73
2019-05-21T18:46:07.522Z,1.40
2019-05-21T18:48:36.305Z,1.43
2019-05-21T18:54:47.861Z,1.43
2019-05-21T18:57:14.629Z,1.60
2019-05-21T18:59:42.494Z,1.80
2019-05-21T19:02:11.440Z,1.70
2019-05-21T19:04:39.407Z,1.90
2019-05-21T19:07:07.138Z,1.90
2019-05-21T19:09:34.850Z,1.80
2019-05-21T19:12:02.906Z,2.23
2019-05-21T19:14:30.705Z,1.57
2019-05-21T19:20:23.871Z,1.90
2019-05-21T19:22:51.517Z,6.90
2019-05-21T19:25:19.150Z,7.07
2019-05-21T19:27:46.735Z,4.53
2019-05-21T19:30:15.805Z,2.13
2019-05-21T19:32:43.392Z,1.63
2019-05-21T19:35:11.056Z,1.80
2019-05-21T19:37:38.684Z,1.37
2019-05-21T19:40:06.510Z,1.40
2019-05-21T19:42:34.434Z,1.50
2019-05-21T19:45:02.478Z,1.30
2019-05-21T19:47:30.209Z,1.50
2019-05-21T19:49:57.750Z,1.60
2019-05-21T19:52:25.367Z,1.50
2019-05-21T19:54:52.994Z,1.60
2019-05-21T19:57:22.576Z,1.97
2019-05-21T19:59:50.205Z,1.57
2019-05-21T20:02:18.831Z,1.33
2019-05-21T20:04:48.439Z,1.47
2019-05-21T20:07:17.021Z,1.60
2019-05-21T20:09:47.955Z,1.57
2019-05-21T20:12:16.688Z,1.53
2019-05-21T20:14:45.295Z,2.13
2019-05-21T20:17:15.147Z,1.60
2019-05-21T20:19:45.440Z,1.60
2019-05-21T20:22:13.489Z,2.13
2019-05-21T20:24:41.363Z,1.80
2019-05-21T20:27:10.496Z,1.90
2019-05-21T20:29:38.455Z,1.70
2019-05-21T20:32:08.659Z,2.10
2019-05-21T20:34:37.136Z,1.90
2019-05-21T20:37:07.132Z,2.10
2019-05-21T20:39:36.889Z,1.90
2019-05-21T20:42:05.671Z,1.97
2019-05-21T20:44:33.936Z,2.20
2019-05-21T20:47:03.367Z,5.03
2019-05-21T20:49:31.399Z,3.10
2019-05-21T20:51:59.011Z,4.87
2019-05-21T20:54:27.454Z,6.57
2019-05-21T20:56:55.351Z,4.73
2019-05-21T20:59:22.875Z,4.80
2019-05-21T21:01:50.470Z,3.47
2019-05-21T21:04:18.056Z,3.57
2019-05-21T21:06:46.497Z,3.07
2019-05-21T21:09:15.577Z,4.20
2019-05-21T21:11:43.568Z,3.83
2019-05-21T21:14:17.932Z,3.23
2019-05-21T21:16:42.535Z,2.77
2019-05-21T21:19:10.413Z,2.20
2019-05-21T21:21:38.265Z,2.17
2019-05-21T21:24:05.952Z,1.70
2019-05-21T21:26:34.476Z,1.70
2019-05-21T21:29:02.113Z,1.80
2019-05-21T21:31:29.961Z,1.90
2019-05-21T21:33:58.554Z,1.97
2019-05-21T21:36:26.188Z,1.97
2019-05-21T21:38:54.214Z,1.97
2019-05-21T21:41:22.287Z,1.57
2019-05-21T21:43:49.953Z,2.10
2019-05-21T21:46:17.507Z,2.00
2019-05-21T21:48:45.724Z,2.30
2019-05-21T21:51:14.508Z,1.70
2019-05-21T21:53:42.603Z,1.90
2019-05-21T21:56:10.111Z,2.27
2019-05-21T21:58:37.733Z,1.90
2019-05-21T22:01:35.722Z,1.80
2019-05-21T22:04:05.186Z,1.90
2019-05-21T22:06:34.802Z,1.73
2019-05-21T22:09:04.367Z,1.40
2019-05-21T22:11:33.351Z,1.40
2019-05-21T22:14:02.781Z,1.57
2019-05-21T22:16:30.650Z,1.40
2019-05-21T22:18:59.313Z,1.40
2019-05-21T22:21:27.501Z,1.63
2019-05-21T22:23:57.104Z,1.40
2019-05-21T22:26:24.880Z,1.70
2019-05-21T22:28:52.573Z,1.70
2019-05-21T22:31:20.274Z,1.90
2019-05-21T22:33:48.131Z,2.00
2019-05-21T22:36:15.883Z,2.10
2019-05-21T22:38:43.542Z,2.20
2019-05-21T22:41:11.154Z,2.30
2019-05-21T22:43:39.486Z,2.60
2019-05-21T22:46:07.319Z,2.30
2019-05-21T22:48:34.992Z,2.10
2019-05-21T22:51:03.143Z,2.30
2019-05-21T22:53:30.739Z,2.43
2019-05-21T22:55:58.326Z,2.33
2019-05-21T22:58:26.005Z,2.60
2019-05-21T23:00:53.787Z,2.30
2019-05-21T23:03:22.037Z,2.40
2019-05-21T23:05:49.620Z,1.77
2019-05-21T23:08:17.669Z,1.93
2019-05-21T23:10:45.358Z,2.40
2019-05-21T23:13:14.071Z,2.10
2019-05-21T23:15:42.135Z,2.00
2019-05-21T23:18:21.045Z,2.00
2019-05-21T23:20:59.641Z,1.87
2019-05-21T23:23:30.769Z,1.63
2019-05-21T23:25:58.551Z,2.17
2019-05-21T23:28:26.411Z,2.43
2019-05-21T23:30:55.041Z,2.17
2019-05-21T23:33:23.123Z,1.90
2019-05-21T23:35:51.766Z,1.90
2019-05-21T23:38:19.396Z,1.87
2019-05-21T23:40:48.496Z,2.07
2019-05-21T23:43:16.586Z,2.20
2019-05-21T23:45:44.234Z,2.40
2019-05-21T23:48:13.835Z,2.10
2019-05-21T23:50:41.494Z,2.23
2019-05-21T23:53:09.221Z,2.10
2019-05-21T23:55:37.504Z,2.10
2019-05-21T23:58:05.491Z,1.87
